Time;durP1;ratioP1;P1;durP2;ratioP2;P2;SDS_P1;SDS_P2;PMS_P1;PMS_P2;Temp;Humidity;BMP_temperature;BMP_pressure;BME280_temperature;BME280_humidity;BME280_pressure;Samples;Min_cycle;Max_cycle;Signal;HPM_P1;HPM_P2
2022/07/17 00:01:01;;;;;;;2.73;2.47;;;15.30;99.90;;;;;;5028343;28;20457;-75
2022/07/17 00:03:28;;;;;;;2.70;2.23;;;15.30;99.90;;;;;;5020409;28;20528;-75
2022/07/17 00:05:55;;;;;;;2.27;2.00;;;15.30;99.90;;;;;;5015278;28;20551;-75
2022/07/17 00:08:23;;;;;;;9.33;2.30;;;15.20;99.90;;;;;;5024178;28;21075;-75
2022/07/17 00:10:49;;;;;;;3.33;2.43;;;15.20;99.90;;;;;;5008469;28;20457;-75
2022/07/17 00:13:16;;;;;;;5.97;2.67;;;15.20;99.90;;;;;;5031409;28;20460;-75
2022/07/17 00:15:43;;;;;;;2.90;1.93;;;15.10;99.90;;;;;;5018264;28;21144;-75
2022/07/17 00:18:10;;;;;;;4.97;2.57;;;15.10;99.90;;;;;;5015476;28;20450;-75
2022/07/17 00:20:37;;;;;;;3.03;2.30;;;15.10;99.90;;;;;;5017617;28;20450;-75
2022/07/17 00:23:04;;;;;;;7.93;2.40;;;15.10;99.90;;;;;;5018069;28;20424;-75
2022/07/17 00:25:32;;;;;;;4.10;2.23;;;15.10;99.90;;;;;;5030922;28;20515;-75
2022/07/17 00:27:59;;;;;;;6.20;2.30;;;15.00;99.90;;;;;;5029081;28;20484;-75
2022/07/17 00:30:26;;;;;;;3.87;2.20;;;15.00;99.90;;;;;;5017276;28;20517;-75
2022/07/17 00:32:53;;;;;;;2.43;2.00;;;14.90;99.90;;;;;;5018372;28;20454;-75
2022/07/17 00:35:19;;;;;;;5.57;1.90;;;14.90;99.90;;;;;;5010598;28;20454;-75
2022/07/17 00:37:48;;;;;;;9.03;2.30;;;14.80;99.90;;;;;;5020533;28;20474;-75
2022/07/17 00:40:19;;;;;;;3.43;2.00;;;14.80;99.90;;;;;;5031189;28;20445;-75
2022/07/17 00:42:47;;;;;;;2.30;2.10;;;14.70;99.90;;;;;;5027851;28;20428;-75
2022/07/17 00:45:15;;;;;;;6.63;2.47;;;14.70;99.90;;;;;;5017318;28;20921;-75
2022/07/17 00:47:55;;;;;;;4.57;2.07;;;14.60;99.90;;;;;;5031037;28;20472;-75
2022/07/17 00:50:23;;;;;;;4.83;2.23;;;14.60;99.90;;;;;;5016541;28;21023;-75
2022/07/17 00:52:50;;;;;;;3.10;2.00;;;14.50;99.90;;;;;;5029698;28;20464;-75
2022/07/17 00:55:18;;;;;;;3.57;2.20;;;14.50;99.90;;;;;;5030759;28;20803;-75
2022/07/17 00:57:48;;;;;;;6.73;2.23;;;14.40;99.90;;;;;;5027983;28;20954;-76
2022/07/17 01:00:16;;;;;;;6.07;2.27;;;14.40;99.90;;;;;;5017879;28;20450;-75
2022/07/17 01:02:46;;;;;;;3.30;2.07;;;14.30;99.90;;;;;;5014435;28;20421;-75
2022/07/17 01:05:13;;;;;;;5.47;1.90;;;14.30;99.90;;;;;;5028018;28;20847;-75
2022/07/17 01:07:39;;;;;;;5.90;2.20;;;14.30;99.90;;;;;;5031603;28;20962;-75
2022/07/17 01:10:07;;;;;;;4.50;2.10;;;14.20;99.90;;;;;;5014937;28;20537;-75
2022/07/17 01:12:34;;;;;;;3.67;2.00;;;14.20;99.90;;;;;;5003125;28;20508;-75
2022/07/17 01:15:04;;;;;;;3.00;1.90;;;14.20;99.90;;;;;;5017199;28;20528;-75
2022/07/17 01:17:31;;;;;;;4.50;2.00;;;14.20;99.90;;;;;;5016248;28;20508;-75
2022/07/17 01:19:58;;;;;;;3.10;2.20;;;14.20;99.90;;;;;;5021401;28;20453;-75
2022/07/17 01:22:26;;;;;;;5.53;2.30;;;14.10;99.90;;;;;;5029220;28;20450;-75
2022/07/17 01:24:52;;;;;;;3.20;2.13;;;14.10;99.90;;;;;;5021535;28;20462;-75
2022/07/17 01:27:19;;;;;;;2.10;1.83;;;14.10;99.90;;;;;;5012626;28;20477;-75
2022/07/17 01:29:45;;;;;;;4.70;2.23;;;14.10;99.90;;;;;;5016053;28;20474;-75
2022/07/17 01:32:12;;;;;;;5.63;2.20;;;14.10;99.90;;;;;;5027907;28;20873;-75
2022/07/17 01:34:39;;;;;;;4.60;2.40;;;14.10;99.90;;;;;;5018402;28;20481;-75
2022/07/17 01:37:05;;;;;;;3.70;1.83;;;14.10;99.90;;;;;;5017101;28;20481;-75
2022/07/17 01:42:17;;;;;;;4.30;2.10;;;14.10;99.90;;;;;;5029520;28;20441;-75
2022/07/17 01:44:44;;;;;;;3.50;2.27;;;14.00;99.90;;;;;;5028124;28;20447;-75
2022/07/17 01:47:13;;;;;;;5.20;2.00;;;14.00;99.90;;;;;;5027819;28;20474;-75
2022/07/17 01:49:43;;;;;;;5.80;2.07;;;14.00;99.90;;;;;;5016505;28;20534;-75
2022/07/17 01:52:10;;;;;;;2.83;2.23;;;14.00;99.90;;;;;;5016773;28;20445;-75
2022/07/17 01:54:38;;;;;;;3.63;2.27;;;14.00;99.90;;;;;;5015255;28;20481;-75
2022/07/17 01:57:04;;;;;;;6.97;2.60;;;14.00;99.90;;;;;;5016764;28;20898;-75
2022/07/17 01:59:31;;;;;;;5.93;2.60;;;14.00;99.90;;;;;;5022374;28;20507;-75
2022/07/17 02:01:58;;;;;;;6.47;2.07;;;13.90;99.90;;;;;;5025986;28;20879;-75
2022/07/17 02:04:24;;;;;;;3.43;2.00;;;13.90;99.90;;;;;;5018994;28;20508;-75
2022/07/17 02:06:53;;;;;;;4.50;2.20;;;13.80;99.90;;;;;;5016574;28;20466;-75
2022/07/17 02:09:20;;;;;;;2.77;2.20;;;13.80;99.90;;;;;;5027212;28;20851;-75
2022/07/17 02:11:48;;;;;;;3.97;2.40;;;13.70;99.90;;;;;;5015429;28;20458;-75
2022/07/17 02:14:14;;;;;;;6.50;2.10;;;13.70;99.90;;;;;;5020181;28;20515;-75
2022/07/17 02:16:41;;;;;;;3.40;2.20;;;13.60;99.90;;;;;;5029413;28;20890;-75
2022/07/17 02:19:08;;;;;;;2.03;1.70;;;13.60;99.90;;;;;;5015979;28;20449;-75
2022/07/17 02:21:34;;;;;;;4.40;2.00;;;13.50;99.90;;;;;;5022252;28;20454;-75
2022/07/17 02:24:01;;;;;;;5.20;2.03;;;13.40;99.90;;;;;;5027327;28;20450;-75
2022/07/17 02:26:28;;;;;;;3.73;2.00;;;13.40;99.90;;;;;;5028908;28;20535;-75
2022/07/17 02:28:56;;;;;;;6.50;2.20;;;13.30;99.90;;;;;;5027739;28;20484;-75
2022/07/17 02:31:22;;;;;;;2.77;2.00;;;13.30;99.90;;;;;;5021700;28;20501;-75
2022/07/17 02:33:49;;;;;;;2.93;2.00;;;13.20;99.90;;;;;;5021723;28;20592;-75
2022/07/17 02:36:16;;;;;;;12.77;2.47;;;13.20;99.90;;;;;;5017431;28;20473;-75
2022/07/17 02:38:42;;;;;;;7.47;2.37;;;13.10;99.90;;;;;;5015042;28;20516;-75
2022/07/17 02:41:09;;;;;;;3.03;2.20;;;13.10;99.90;;;;;;5017527;28;20868;-75
2022/07/17 02:43:36;;;;;;;2.80;2.10;;;13.00;99.90;;;;;;5020183;28;20449;-75
2022/07/17 02:46:04;;;;;;;6.07;1.90;;;13.00;99.90;;;;;;5025664;28;20481;-75
2022/07/17 02:48:31;;;;;;;3.00;2.00;;;13.00;99.90;;;;;;5027482;28;20457;-75
2022/07/17 02:50:57;;;;;;;6.93;2.03;;;13.00;99.90;;;;;;5015752;28;20482;-75
2022/07/17 02:53:24;;;;;;;4.80;2.20;;;12.90;99.90;;;;;;5014625;28;20501;-75
2022/07/17 02:55:51;;;;;;;5.27;2.17;;;12.90;99.90;;;;;;5020134;28;20895;-75
2022/07/17 02:58:17;;;;;;;3.10;2.00;;;12.80;99.90;;;;;;5023464;28;20798;-75
2022/07/17 03:00:44;;;;;;;4.10;2.03;;;12.80;99.90;;;;;;5025464;28;21004;-75
2022/07/17 03:03:12;;;;;;;3.00;2.40;;;12.80;99.90;;;;;;5025988;28;20954;-75
2022/07/17 03:05:39;;;;;;;5.90;2.20;;;12.80;99.90;;;;;;5009978;28;20486;-75
2022/07/17 03:08:05;;;;;;;4.50;2.27;;;12.70;99.90;;;;;;5026475;28;20470;-75
2022/07/17 03:10:32;;;;;;;2.23;1.87;;;12.70;99.90;;;;;;5018172;28;21083;-75
2022/07/17 03:12:59;;;;;;;2.77;2.50;;;12.60;99.90;;;;;;5015358;28;20451;-75
2022/07/17 03:15:25;;;;;;;3.80;2.10;;;12.50;99.90;;;;;;5015217;28;20454;-75
2022/07/17 03:17:52;;;;;;;3.30;2.50;;;12.40;99.90;;;;;;5017440;28;20457;-75
2022/07/17 03:20:20;;;;;;;3.60;2.60;;;12.40;99.90;;;;;;5028218;28;20453;-75
2022/07/17 03:22:47;;;;;;;2.20;2.00;;;12.40;99.90;;;;;;5028204;28;20445;-75
2022/07/17 03:25:13;;;;;;;3.97;2.20;;;12.40;99.90;;;;;;5017732;28;20535;-75
2022/07/17 03:27:40;;;;;;;4.20;2.27;;;12.30;99.90;;;;;;5020034;28;20523;-75
2022/07/17 03:30:09;;;;;;;3.03;2.27;;;12.30;99.90;;;;;;5026150;28;21217;-76
2022/07/17 03:32:35;;;;;;;3.67;2.30;;;12.30;99.90;;;;;;5023849;28;20945;-75
2022/07/17 03:35:02;;;;;;;11.10;2.30;;;12.30;99.90;;;;;;5026298;28;20462;-75
2022/07/17 03:37:30;;;;;;;7.10;2.40;;;12.30;99.90;;;;;;5028388;28;20479;-75
2022/07/17 03:39:57;;;;;;;2.23;1.90;;;12.30;99.90;;;;;;5026532;28;20449;-75
2022/07/17 03:42:23;;;;;;;2.20;2.10;;;12.30;99.90;;;;;;5028089;28;20911;-75
2022/07/17 03:44:50;;;;;;;7.03;2.10;;;12.30;99.90;;;;;;5027296;28;20453;-75
2022/07/17 03:47:17;;;;;;;2.97;2.53;;;12.30;99.90;;;;;;5029905;28;20469;-76
2022/07/17 03:49:43;;;;;;;3.80;2.40;;;12.30;99.90;;;;;;5019755;28;20556;-76
2022/07/17 03:52:10;;;;;;;4.20;3.10;;;12.30;99.90;;;;;;5019086;28;20519;-76
2022/07/17 03:54:38;;;;;;;5.33;2.77;;;12.20;99.90;;;;;;5017441;28;20536;-76
2022/07/17 03:57:05;;;;;;;5.00;2.83;;;12.20;99.90;;;;;;5029227;28;20527;-76
2022/07/17 03:59:31;;;;;;;3.80;2.40;;;12.30;99.90;;;;;;5024324;28;20852;-76
2022/07/17 04:01:58;;;;;;;4.07;2.87;;;12.20;99.90;;;;;;5018557;28;20451;-76
2022/07/17 04:04:24;;;;;;;4.33;2.60;;;12.20;99.90;;;;;;5022134;28;20449;-76
2022/07/17 04:06:51;;;;;;;3.30;2.37;;;12.20;99.90;;;;;;5020324;28;20481;-76
2022/07/17 04:09:18;;;;;;;3.63;2.57;;;12.20;99.90;;;;;;5027317;28;20517;-76
2022/07/17 04:11:46;;;;;;;5.27;2.30;;;12.20;99.90;;;;;;5017714;28;20504;-76
2022/07/17 04:14:12;;;;;;;7.97;2.60;;;12.20;99.90;;;;;;5024922;28;20461;-76
2022/07/17 04:16:39;;;;;;;2.73;2.30;;;12.30;99.90;;;;;;5031779;28;20527;-76
2022/07/17 04:19:06;;;;;;;2.33;2.10;;;12.30;99.90;;;;;;5030008;28;20456;-76
2022/07/17 04:21:32;;;;;;;2.70;2.50;;;12.30;99.90;;;;;;5020192;28;20450;-76
2022/07/17 04:23:59;;;;;;;7.73;2.60;;;12.40;99.90;;;;;;5017628;28;20834;-76
2022/07/17 04:26:26;;;;;;;6.70;2.57;;;12.40;99.90;;;;;;5024260;28;20891;-76
2022/07/17 04:28:54;;;;;;;4.57;2.67;;;12.40;99.90;;;;;;5031439;28;20499;-76
2022/07/17 04:31:20;;;;;;;8.40;3.10;;;12.40;99.90;;;;;;5022006;28;20546;-76
2022/07/17 04:33:47;;;;;;;5.87;2.50;;;12.50;99.90;;;;;;5016809;28;20500;-76
2022/07/17 04:36:14;;;;;;;4.27;2.73;;;12.50;99.90;;;;;;5018228;28;20477;-76
2022/07/17 04:38:40;;;;;;;2.90;2.60;;;12.60;99.90;;;;;;5017315;28;20508;-76
2022/07/17 04:41:07;;;;;;;4.40;2.87;;;12.60;99.90;;;;;;5018156;28;20466;-76
2022/07/17 04:43:33;;;;;;;2.77;2.20;;;12.70;99.90;;;;;;5017909;28;20446;-76
2022/07/17 04:46:01;;;;;;;3.40;2.33;;;12.70;99.90;;;;;;5017635;28;20473;-76
2022/07/17 04:48:28;;;;;;;2.93;2.30;;;12.80;99.90;;;;;;5010590;28;20581;-76
2022/07/17 04:50:55;;;;;;;5.83;2.40;;;12.80;99.90;;;;;;5016890;28;20509;-76
2022/07/17 04:53:21;;;;;;;5.27;2.40;;;12.90;99.90;;;;;;5017502;28;20527;-76
2022/07/17 04:55:48;;;;;;;5.67;2.50;;;13.00;99.90;;;;;;5016464;28;20482;-76
2022/07/17 04:58:15;;;;;;;6.70;2.50;;;13.00;99.90;;;;;;5029176;28;20450;-76
2022/07/17 05:00:41;;;;;;;6.20;2.60;;;13.10;99.90;;;;;;5029576;28;20453;-76
2022/07/17 05:03:09;;;;;;;5.53;2.60;;;13.20;99.90;;;;;;5028537;28;20871;-76
2022/07/17 05:05:36;;;;;;;7.13;2.40;;;13.30;99.90;;;;;;5026838;28;20474;-77
2022/07/17 05:08:03;;;;;;;3.67;2.77;;;13.30;99.90;;;;;;5020599;28;20509;-78
2022/07/17 05:10:30;;;;;;;8.33;2.43;;;13.40;99.90;;;;;;5017064;28;20478;-78
2022/07/17 05:12:56;;;;;;;3.50;2.70;;;13.50;99.90;;;;;;5017085;28;20859;-77
2022/07/17 05:15:23;;;;;;;4.23;2.60;;;13.50;99.90;;;;;;5020052;28;20465;-77
2022/07/17 05:17:50;;;;;;;5.63;2.40;;;13.60;99.90;;;;;;5019923;28;20461;-77
2022/07/17 05:20:17;;;;;;;7.20;2.60;;;13.70;99.90;;;;;;5030371;28;20446;-77
2022/07/17 05:22:44;;;;;;;5.13;2.53;;;13.70;99.90;;;;;;5028341;28;20445;-78
2022/07/17 05:25:11;;;;;;;5.60;2.83;;;13.80;99.90;;;;;;5023171;28;20519;-77
2022/07/17 05:27:37;;;;;;;2.60;2.40;;;13.90;99.90;;;;;;5030379;28;20904;-77
2022/07/17 05:30:05;;;;;;;6.47;2.70;;;13.90;99.90;;;;;;5024173;28;20559;-78
2022/07/17 05:32:32;;;;;;;6.73;2.33;;;14.00;99.90;;;;;;5024742;28;21031;-77
2022/07/17 05:34:59;;;;;;;5.20;2.70;;;14.00;99.90;;;;;;5028515;28;20453;-77
2022/07/17 05:37:27;;;;;;;3.53;2.70;;;14.10;99.90;;;;;;5029875;28;20481;-77
2022/07/17 05:39:53;;;;;;;4.60;2.40;;;14.20;99.90;;;;;;5029701;28;20445;-77
2022/07/17 05:42:20;;;;;;;4.40;2.23;;;14.30;99.90;;;;;;5028728;28;20871;-77
2022/07/17 05:44:47;;;;;;;4.03;2.40;;;14.40;99.90;;;;;;5030080;28;20515;-77
2022/07/17 05:47:13;;;;;;;3.77;2.60;;;14.50;99.90;;;;;;5027204;28;20539;-77
2022/07/17 05:49:40;;;;;;;6.40;2.80;;;14.60;99.90;;;;;;5017175;28;20446;-79
2022/07/17 05:52:07;;;;;;;4.70;2.80;;;14.80;99.90;;;;;;5027133;28;20503;-79
2022/07/17 05:54:35;;;;;;;4.63;2.70;;;15.10;99.90;;;;;;5024524;28;20507;-79
2022/07/17 05:57:01;;;;;;;7.40;2.63;;;15.40;99.90;;;;;;5019764;28;20528;-79
2022/07/17 05:59:28;;;;;;;4.33;2.50;;;15.70;99.90;;;;;;5020875;28;20437;-79
2022/07/17 06:01:55;;;;;;;3.80;2.70;;;16.00;99.90;;;;;;5013108;28;20473;-78
2022/07/17 06:04:21;;;;;;;4.43;2.07;;;16.30;99.90;;;;;;5024045;28;20857;-77
2022/07/17 06:06:48;;;;;;;8.03;2.27;;;16.50;99.90;;;;;;5013974;28;20528;-77
2022/07/17 06:09:15;;;;;;;2.73;2.30;;;16.60;99.90;;;;;;5012615;28;20495;-77
2022/07/17 06:11:43;;;;;;;8.90;3.03;;;16.80;99.90;;;;;;5013072;28;20490;-78
2022/07/17 06:14:09;;;;;;;2.80;2.43;;;17.00;99.90;;;;;;5013252;28;20442;-78
2022/07/17 06:16:36;;;;;;;3.73;2.27;;;17.20;99.90;;;;;;5012383;28;20445;-78
2022/07/17 06:19:03;;;;;;;10.73;2.97;;;17.40;99.90;;;;;;5021597;28;20439;-74
2022/07/17 06:21:29;;;;;;;2.47;2.27;;;17.60;99.90;;;;;;5021686;28;20450;-78
2022/07/17 06:23:56;;;;;;;4.20;2.50;;;17.80;99.90;;;;;;5003160;28;20508;-76
2022/07/17 06:26:23;;;;;;;5.47;2.13;;;18.10;99.90;;;;;;5023166;28;20456;-76
2022/07/17 06:28:51;;;;;;;6.57;2.90;;;18.30;99.90;;;;;;5021729;28;20625;-77
2022/07/17 06:31:17;;;;;;;4.10;2.60;;;18.50;99.90;;;;;;5022387;28;20470;-77
2022/07/17 06:33:44;;;;;;;6.60;2.47;;;18.70;99.90;;;;;;5022099;28;20582;-78
2022/07/17 06:36:11;;;;;;;5.00;2.10;;;18.80;99.90;;;;;;5018740;28;20447;-77
2022/07/17 06:38:37;;;;;;;3.00;1.93;;;18.90;99.90;;;;;;5029310;28;20854;-78
2022/07/17 06:41:04;;;;;;;6.43;2.53;;;19.10;99.90;;;;;;5028192;28;20507;-77
2022/07/17 06:43:31;;;;;;;6.30;2.87;;;19.20;99.90;;;;;;5026907;28;20478;-78
2022/07/17 06:45:59;;;;;;;4.17;2.03;;;19.40;99.90;;;;;;5017301;28;20509;-77
2022/07/17 06:48:26;;;;;;;2.37;1.90;;;19.70;99.90;;;;;;5025567;28;20438;-77
2022/07/17 06:50:52;;;;;;;6.07;2.20;;;19.80;99.90;;;;;;5012437;28;20519;-78
2022/07/17 06:53:19;;;;;;;3.63;2.20;;;19.90;99.90;;;;;;5011968;28;20446;-76
2022/07/17 06:55:46;;;;;;;4.80;2.27;;;19.90;99.90;;;;;;5012790;28;20449;-77
2022/07/17 06:58:12;;;;;;;6.90;2.07;;;20.00;99.90;;;;;;5017105;28;20447;-77
2022/07/17 07:00:39;;;;;;;4.53;2.43;;;20.30;99.90;;;;;;5012520;28;20439;-77
2022/07/17 07:03:07;;;;;;;4.33;2.10;;;20.40;99.90;;;;;;5007896;28;20521;-77
2022/07/17 07:05:34;;;;;;;4.47;2.30;;;20.50;99.90;;;;;;5011307;28;20454;-75
2022/07/17 07:08:01;;;;;;;4.60;2.40;;;20.60;99.90;;;;;;5012236;28;20512;-75
2022/07/17 07:10:28;;;;;;;3.53;2.20;;;20.80;99.90;;;;;;5012125;28;20493;-75
2022/07/17 07:12:55;;;;;;;6.50;2.50;;;20.90;99.90;;;;;;5026076;28;20476;-75
2022/07/17 07:15:22;;;;;;;4.27;2.30;;;21.00;99.90;;;;;;5027009;28;20507;-75
2022/07/17 07:17:48;;;;;;;6.47;2.07;;;21.20;99.90;;;;;;5015201;28;20450;-75
2022/07/17 07:20:16;;;;;;;2.40;2.20;;;21.40;99.90;;;;;;5028252;28;20449;-75
2022/07/17 07:22:43;;;;;;;3.57;2.20;;;21.60;99.90;;;;;;5027140;28;20520;-75
2022/07/17 07:25:10;;;;;;;4.80;2.43;;;21.70;99.90;;;;;;5027533;28;20965;-75
2022/07/17 07:27:36;;;;;;;6.07;1.97;;;21.80;99.90;;;;;;5027811;28;20462;-75
2022/07/17 07:30:04;;;;;;;3.70;2.10;;;21.90;99.90;;;;;;5023243;28;20538;-75
2022/07/17 07:32:30;;;;;;;3.20;1.83;;;22.10;99.90;;;;;;5024699;28;20611;-75
2022/07/17 07:34:57;;;;;;;7.50;2.30;;;22.10;99.90;;;;;;5021254;28;20449;-75
2022/07/17 07:37:25;;;;;;;10.00;1.90;;;22.20;99.90;;;;;;5011578;28;20474;-74
2022/07/17 07:39:51;;;;;;;5.13;1.87;;;22.30;99.90;;;;;;5012060;28;20446;-75
2022/07/17 07:42:18;;;;;;;4.77;2.00;;;22.40;99.90;;;;;;5030714;28;20449;-74
2022/07/17 07:44:45;;;;;;;3.80;1.77;;;22.60;99.90;;;;;;5031429;28;20481;-76
2022/07/17 07:47:11;;;;;;;6.70;1.97;;;22.80;99.90;;;;;;5027717;28;20478;-75
2022/07/17 07:49:38;;;;;;;3.93;2.07;;;22.90;99.90;;;;;;5011542;28;20501;-74
2022/07/17 07:52:05;;;;;;;2.20;1.70;;;23.10;99.90;;;;;;5010811;28;20544;-74
2022/07/17 07:54:33;;;;;;;3.07;1.80;;;23.30;99.90;;;;;;5010598;28;20450;-73
2022/07/17 07:57:00;;;;;;;5.17;1.80;;;23.40;99.90;;;;;;5011249;28;20528;-73
2022/07/17 07:59:27;;;;;;;3.53;1.60;;;23.50;99.60;;;;;;5011054;28;20450;-73
2022/07/17 08:01:54;;;;;;;7.13;2.20;;;23.60;98.90;;;;;;5013300;28;20454;-73
2022/07/17 08:04:20;;;;;;;3.40;1.73;;;23.60;99.20;;;;;;5014078;28;20500;-73
2022/07/17 08:06:47;;;;;;;3.87;2.00;;;23.70;98.30;;;;;;5011015;28;20809;-74
2022/07/17 08:09:14;;;;;;;3.67;2.07;;;23.80;98.00;;;;;;5010951;28;20531;-73
2022/07/17 08:11:42;;;;;;;3.07;1.90;;;24.10;97.90;;;;;;5011042;28;20544;-73
2022/07/17 08:14:08;;;;;;;5.73;2.00;;;24.20;97.40;;;;;;5010329;28;20523;-73
2022/07/17 08:16:35;;;;;;;3.13;1.60;;;24.30;97.90;;;;;;5010708;28;20481;-73
2022/07/17 08:19:02;;;;;;;2.87;1.80;;;24.30;97.50;;;;;;5007643;28;21020;-74
2022/07/17 08:21:29;;;;;;;3.93;1.93;;;24.30;97.20;;;;;;5009349;28;20524;-74
2022/07/17 08:23:55;;;;;;;4.13;1.80;;;24.40;96.40;;;;;;5010662;28;20501;-74
2022/07/17 08:26:22;;;;;;;4.47;1.70;;;24.70;96.40;;;;;;5010561;28;20540;-73
2022/07/17 08:28:50;;;;;;;4.63;1.90;;;24.70;95.40;;;;;;5010584;28;20484;-73
2022/07/17 08:31:16;;;;;;;8.30;2.07;;;25.00;95.10;;;;;;5018659;28;20511;-73
2022/07/17 08:33:43;;;;;;;5.20;1.90;;;24.80;95.70;;;;;;5033962;28;20521;-73
2022/07/17 08:36:10;;;;;;;5.70;1.67;;;24.90;95.70;;;;;;5033830;28;20534;-73
2022/07/17 08:38:37;;;;;;;11.70;2.77;;;25.20;94.10;;;;;;5033929;28;20797;-74
2022/07/17 08:41:04;;;;;;;5.80;1.40;;;25.00;95.00;;;;;;5033949;28;21004;-74
2022/07/17 08:43:31;;;;;;;4.67;1.80;;;24.80;94.40;;;;;;5033157;28;20484;-74
2022/07/17 08:45:59;;;;;;;8.07;1.57;;;24.60;93.70;;;;;;5019570;28;20528;-74
2022/07/17 08:48:28;;;;;;;2.80;1.30;;;24.60;93.20;;;;;;5014040;28;20458;-73
2022/07/17 08:50:55;;;;;;;3.77;1.70;;;24.50;93.30;;;;;;5014065;28;20906;-73
2022/07/17 08:53:22;;;;;;;2.40;1.43;;;24.60;93.50;;;;;;5013940;28;20454;-73
2022/07/17 08:55:49;;;;;;;4.80;1.70;;;24.90;93.40;;;;;;5013933;28;20524;-73
2022/07/17 08:58:16;;;;;;;2.70;1.73;;;25.20;92.90;;;;;;5013713;28;20450;-73
2022/07/17 09:00:43;;;;;;;5.30;1.53;;;25.20;92.00;;;;;;5026503;28;20453;-73
2022/07/17 09:03:11;;;;;;;2.23;1.60;;;24.90;91.60;;;;;;5027405;28;20500;-73
2022/07/17 09:05:40;;;;;;;6.03;1.83;;;24.60;91.50;;;;;;5013432;28;20899;-73
2022/07/17 09:08:07;;;;;;;8.93;1.90;;;24.20;91.80;;;;;;5013535;28;20958;-73
2022/07/17 09:10:37;;;;;;;2.33;1.67;;;24.10;91.80;;;;;;5013748;28;20458;-73
2022/07/17 09:13:16;;;;;;;7.27;2.07;;;24.30;92.00;;;;;;5013301;28;20474;-73
2022/07/17 09:15:43;;;;;;;8.37;1.70;;;24.40;92.50;;;;;;5014149;28;20470;-73
2022/07/17 09:18:11;;;;;;;3.77;1.50;;;24.80;92.20;;;;;;5013237;28;20963;-74
2022/07/17 09:20:43;;;;;;;2.80;1.67;;;25.00;91.50;;;;;;5013626;28;20524;-73
2022/07/17 09:23:10;;;;;;;4.70;1.80;;;25.00;90.10;;;;;;5013453;28;20458;-73
2022/07/17 09:25:39;;;;;;;5.07;1.73;;;24.90;90.70;;;;;;5012647;28;20486;-73
2022/07/17 09:28:07;;;;;;;3.30;1.53;;;24.80;89.40;;;;;;5013272;28;20981;-74
2022/07/17 09:30:36;;;;;;;1.87;1.50;;;24.60;89.70;;;;;;5014393;28;20509;-73
2022/07/17 09:33:05;;;;;;;3.20;1.23;;;24.40;90.50;;;;;;5014361;28;20501;-74
2022/07/17 09:35:33;;;;;;;4.30;2.03;;;24.60;90.50;;;;;;5012729;28;20450;-74
2022/07/17 09:38:00;;;;;;;1.50;1.40;;;24.80;90.20;;;;;;5013265;28;20457;-73
2022/07/17 09:43:10;;;;;;;5.93;1.80;;;25.60;89.70;;;;;;5011679;28;20545;-72
2022/07/17 09:45:37;;;;;;;5.30;1.70;;;26.10;89.20;;;;;;5012835;28;20580;-72
2022/07/17 09:48:05;;;;;;;2.50;1.80;;;26.00;85.80;;;;;;5023310;28;20530;-72
2022/07/17 09:50:35;;;;;;;4.30;1.80;;;25.80;86.60;;;;;;5032774;28;20492;-72
2022/07/17 09:53:02;;;;;;;2.50;1.47;;;25.70;86.40;;;;;;5032702;28;20492;-72
2022/07/17 09:55:31;;;;;;;1.93;1.50;;;25.50;85.40;;;;;;5032488;28;20450;-72
2022/07/17 09:58:00;;;;;;;5.33;1.50;;;25.50;85.60;;;;;;5032604;28;20449;-72
2022/07/17 10:00:27;;;;;;;3.53;1.43;;;25.40;87.30;;;;;;5031743;28;20536;-72
2022/07/17 10:02:54;;;;;;;3.97;1.90;;;25.50;88.90;;;;;;5008593;28;20994;-74
2022/07/17 10:05:21;;;;;;;4.93;1.90;;;25.80;86.40;;;;;;4997566;28;20508;-73
2022/07/17 10:07:49;;;;;;;2.33;1.40;;;25.60;85.20;;;;;;5012727;28;20461;-74
2022/07/17 10:10:18;;;;;;;4.03;1.33;;;25.50;85.40;;;;;;5012603;28;20450;-73
2022/07/17 10:12:47;;;;;;;2.77;1.60;;;25.30;85.30;;;;;;5012409;28;20905;-73
2022/07/17 10:15:14;;;;;;;2.80;1.40;;;25.50;87.40;;;;;;5017802;28;20449;-73
2022/07/17 10:17:41;;;;;;;2.80;1.67;;;25.90;83.60;;;;;;5028458;28;20454;-74
2022/07/17 10:20:10;;;;;;;6.10;1.57;;;26.20;83.70;;;;;;5012229;28;20458;-72
2022/07/17 10:22:42;;;;;;;8.03;1.67;;;26.40;83.00;;;;;;5012177;28;20459;-74
2022/07/17 10:25:15;;;;;;;2.37;1.37;;;26.70;83.20;;;;;;5011710;28;20472;-74
2022/07/17 10:27:47;;;;;;;1.60;1.50;;;26.50;82.50;;;;;;5011974;28;20818;-72
2022/07/17 10:30:21;;;;;;;2.43;1.50;;;26.50;83.90;;;;;;5012434;28;20525;-73
2022/07/17 10:32:52;;;;;;;6.43;1.50;;;26.40;84.30;;;;;;5012079;28;20492;-74
2022/07/17 10:35:19;;;;;;;2.10;1.40;;;26.50;86.10;;;;;;5011384;28;20536;-73
2022/07/17 10:37:46;;;;;;;3.90;1.60;;;26.70;82.20;;;;;;5024736;28;20484;-74
2022/07/17 10:40:18;;;;;;;2.00;1.50;;;26.60;79.70;;;;;;5031384;28;20881;-77
2022/07/17 10:42:53;;;;;;;3.20;1.50;;;26.40;82.20;;;;;;5031231;28;20450;-74
2022/07/17 10:45:23;;;;;;;2.67;1.70;;;26.60;80.20;;;;;;5027725;28;20450;-74
2022/07/17 10:47:53;;;;;;;4.57;1.63;;;26.70;81.70;;;;;;5012764;28;20446;-75
2022/07/17 10:50:23;;;;;;;2.70;1.20;;;27.10;80.50;;;;;;5023155;28;20450;-74
2022/07/17 10:53:16;;;;;;;2.17;1.30;;;27.10;77.30;;;;;;5012396;28;20497;-74
2022/07/17 10:55:46;;;;;;;5.13;1.47;;;26.70;77.00;;;;;;4993649;28;20482;-74
2022/07/17 10:58:18;;;;;;;3.30;1.80;;;26.60;79.50;;;;;;5012178;28;20474;-73
2022/07/17 11:00:55;;;;;;;2.70;1.30;;;26.50;78.90;;;;;;5012528;28;20442;-75
2022/07/17 11:03:22;;;;;;;3.43;1.67;;;26.80;82.20;;;;;;5004618;28;20493;-75
2022/07/17 11:05:49;;;;;;;2.87;1.30;;;27.20;78.50;;;;;;5011875;28;20465;-76
2022/07/17 11:08:15;;;;;;;4.33;1.80;;;27.40;79.10;;;;;;5012371;28;20878;-75
2022/07/17 11:10:43;;;;;;;5.90;1.80;;;27.70;80.30;;;;;;5012386;28;20446;-75
2022/07/17 11:13:14;;;;;;;3.37;1.30;;;28.10;77.50;;;;;;5031787;28;20484;-75
2022/07/17 11:15:42;;;;;;;6.03;1.70;;;28.10;75.40;;;;;;5022381;28;20470;-75
2022/07/17 11:18:12;;;;;;;5.67;1.30;;;28.00;74.80;;;;;;5012316;28;20485;-75
2022/07/17 11:20:47;;;;;;;2.87;1.20;;;28.00;74.50;;;;;;5018819;28;20874;-75
2022/07/17 11:23:14;;;;;;;2.20;1.40;;;28.00;74.10;;;;;;5031511;28;20444;-75
2022/07/17 11:25:52;;;;;;;3.70;1.43;;;27.80;76.50;;;;;;5026208;28;20540;-74
2022/07/17 11:28:28;;;;;;;3.27;1.40;;;28.00;76.20;;;;;;5014191;28;20852;-75
2022/07/17 11:30:55;;;;;;;4.53;1.33;;;28.20;76.60;;;;;;5031712;28;20864;-75
2022/07/17 11:33:22;;;;;;;3.00;1.30;;;28.50;73.90;;;;;;5029179;28;20539;-76
2022/07/17 11:35:48;;;;;;;2.60;1.33;;;28.80;75.30;;;;;;5031673;28;20485;-75
2022/07/17 11:38:15;;;;;;;1.80;1.63;;;29.10;74.80;;;;;;5021627;28;20455;-74
2022/07/17 11:40:46;;;;;;;2.23;1.30;;;29.30;74.30;;;;;;5011382;28;20451;-75
2022/07/17 11:43:14;;;;;;;4.10;1.40;;;29.50;74.00;;;;;;5011735;28;20445;-75
2022/07/17 11:45:42;;;;;;;5.13;1.80;;;29.60;73.00;;;;;;5011381;28;21059;-75
2022/07/17 11:48:09;;;;;;;4.07;1.60;;;29.60;70.60;;;;;;5012085;28;20458;-74
2022/07/17 11:50:36;;;;;;;1.70;1.20;;;29.10;69.00;;;;;;5030606;28;20453;-74
2022/07/17 11:53:04;;;;;;;5.30;2.03;;;28.50;70.00;;;;;;5031560;28;20493;-73
2022/07/17 11:55:36;;;;;;;3.60;1.60;;;27.80;69.70;;;;;;5031304;28;20453;-75
2022/07/17 11:58:03;;;;;;;3.80;1.50;;;27.60;72.70;;;;;;5031490;28;20540;-74
2022/07/17 12:00:31;;;;;;;2.73;1.30;;;28.00;72.70;;;;;;5031282;28;20507;-74
2022/07/17 12:03:02;;;;;;;2.80;1.20;;;28.40;72.00;;;;;;5025689;28;20450;-75
2022/07/17 12:05:30;;;;;;;1.60;1.50;;;28.80;69.90;;;;;;5011247;28;21872;-73
2022/07/17 12:07:57;;;;;;;2.70;1.10;;;29.00;71.00;;;;;;5015302;28;20508;-75
2022/07/17 12:10:25;;;;;;;1.93;1.30;;;29.40;68.90;;;;;;5015487;28;20453;-74
2022/07/17 12:12:57;;;;;;;3.33;1.30;;;29.40;68.60;;;;;;5015179;28;20895;-73
2022/07/17 12:15:37;;;;;;;4.77;2.10;;;29.60;66.60;;;;;;5015412;28;20988;-74
2022/07/17 12:18:04;;;;;;;2.20;2.00;;;29.80;68.00;;;;;;5011782;28;20461;-75
2022/07/17 12:20:44;;;;;;;1.87;1.33;;;29.90;67.70;;;;;;5012556;28;21892;-74
2022/07/17 12:23:27;;;;;;;4.50;1.53;;;30.00;66.00;;;;;;4995244;28;20867;-75
2022/07/17 12:26:04;;;;;;;4.47;1.40;;;30.10;66.00;;;;;;5000891;28;20569;-74
2022/07/17 12:28:31;;;;;;;9.63;1.37;;;30.00;63.80;;;;;;5015233;28;20881;-75
2022/07/17 12:30:59;;;;;;;3.70;2.43;;;30.00;65.40;;;;;;5014996;28;20457;-74
2022/07/17 12:33:25;;;;;;;2.30;1.30;;;30.00;63.00;;;;;;5032779;28;20534;-74
2022/07/17 12:35:52;;;;;;;1.23;1.07;;;29.90;62.40;;;;;;5033012;28;20469;-75
2022/07/17 12:38:19;;;;;;;7.13;2.10;;;29.60;61.70;;;;;;5034346;28;20507;-74
2022/07/17 12:40:46;;;;;;;4.50;1.40;;;29.60;62.40;;;;;;5034197;28;20900;-73
2022/07/17 12:43:12;;;;;;;2.07;1.40;;;29.70;65.20;;;;;;5034408;28;20937;-74
2022/07/17 12:45:39;;;;;;;3.63;1.40;;;29.90;64.10;;;;;;5031231;28;20508;-74
2022/07/17 12:48:08;;;;;;;3.47;1.10;;;30.00;65.20;;;;;;5014984;28;20469;-75
2022/07/17 12:50:34;;;;;;;2.70;1.80;;;30.20;64.40;;;;;;5014965;28;20446;-74
2022/07/17 12:53:01;;;;;;;1.63;1.37;;;30.30;62.90;;;;;;5015591;28;20478;-73